sensor_id;sensor_type;location;lat;lon;timestamp;P1;durP1;ratioP1;P2;durP2;ratioP2
84476;SDS011;74700;43.228;0.108;2024-02-23T00:00:39;24.55;;;4.00;;
84476;SDS011;74700;43.228;0.108;2024-02-23T00:03:05;17.42;;;4.00;;
84476;SDS011;74700;43.228;0.108;2024-02-23T00:05:32;23.08;;;4.40;;
84476;SDS011;74700;43.228;0.108;2024-02-23T00:07:58;15.02;;;3.92;;
84476;SDS011;74700;43.228;0.108;2024-02-23T00:10:24;19.35;;;4.13;;
84476;SDS011;74700;43.228;0.108;2024-02-23T00:12:50;21.42;;;3.83;;
84476;SDS011;74700;43.228;0.108;2024-02-23T00:15:16;18.27;;;4.97;;
84476;SDS011;74700;43.228;0.108;2024-02-23T00:17:42;19.92;;;3.97;;
84476;SDS011;74700;43.228;0.108;2024-02-23T00:20:09;17.35;;;3.72;;
84476;SDS011;74700;43.228;0.108;2024-02-23T00:22:40;20.90;;;4.35;;
84476;SDS011;74700;43.228;0.108;2024-02-23T00:25:06;22.85;;;3.85;;
84476;SDS011;74700;43.228;0.108;2024-02-23T00:27:32;24.80;;;4.68;;
84476;SDS011;74700;43.228;0.108;2024-02-23T00:29:59;9.25;;;2.60;;
84476;SDS011;74700;43.228;0.108;2024-02-23T00:32:25;14.55;;;3.13;;
84476;SDS011;74700;43.228;0.108;2024-02-23T00:34:51;18.33;;;3.50;;
84476;SDS011;74700;43.228;0.108;2024-02-23T00:37:17;14.52;;;3.97;;
84476;SDS011;74700;43.228;0.108;2024-02-23T00:39:44;13.15;;;3.72;;
84476;SDS011;74700;43.228;0.108;2024-02-23T00:42:10;19.10;;;3.33;;
84476;SDS011;74700;43.228;0.108;2024-02-23T00:44:36;15.25;;;3.53;;
84476;SDS011;74700;43.228;0.108;2024-02-23T00:47:02;14.25;;;3.33;;
84476;SDS011;74700;43.228;0.108;2024-02-23T00:49:29;18.10;;;3.35;;
84476;SDS011;74700;43.228;0.108;2024-02-23T00:51:55;14.88;;;3.30;;
84476;SDS011;74700;43.228;0.108;2024-02-23T00:54:21;24.75;;;4.35;;
84476;SDS011;74700;43.228;0.108;2024-02-23T00:56:47;21.50;;;4.10;;
84476;SDS011;74700;43.228;0.108;2024-02-23T00:59:13;13.95;;;3.78;;
84476;SDS011;74700;43.228;0.108;2024-02-23T01:01:39;13.75;;;3.40;;
84476;SDS011;74700;43.228;0.108;2024-02-23T01:04:05;19.85;;;3.63;;
84476;SDS011;74700;43.228;0.108;2024-02-23T01:06:31;18.80;;;3.20;;
84476;SDS011;74700;43.228;0.108;2024-02-23T01:08:57;12.57;;;2.72;;
84476;SDS011;74700;43.228;0.108;2024-02-23T01:11:23;24.05;;;3.15;;
84476;SDS011;74700;43.228;0.108;2024-02-23T01:13:49;14.73;;;3.58;;
84476;SDS011;74700;43.228;0.108;2024-02-23T01:16:15;9.68;;;3.08;;
84476;SDS011;74700;43.228;0.108;2024-02-23T01:18:41;15.88;;;2.80;;
84476;SDS011;74700;43.228;0.108;2024-02-23T01:21:08;13.57;;;2.95;;
84476;SDS011;74700;43.228;0.108;2024-02-23T01:23:34;13.98;;;2.35;;
84476;SDS011;74700;43.228;0.108;2024-02-23T01:26:00;11.20;;;2.25;;
84476;SDS011;74700;43.228;0.108;2024-02-23T01:28:27;11.13;;;2.90;;
84476;SDS011;74700;43.228;0.108;2024-02-23T01:30:53;9.38;;;2.88;;
84476;SDS011;74700;43.228;0.108;2024-02-23T01:33:19;6.72;;;2.40;;
84476;SDS011;74700;43.228;0.108;2024-02-23T01:35:45;11.30;;;2.75;;
84476;SDS011;74700;43.228;0.108;2024-02-23T01:38:11;7.18;;;2.25;;
84476;SDS011;74700;43.228;0.108;2024-02-23T01:40:43;5.65;;;2.13;;
84476;SDS011;74700;43.228;0.108;2024-02-23T01:43:10;9.90;;;2.85;;
84476;SDS011;74700;43.228;0.108;2024-02-23T01:45:36;8.55;;;2.08;;
84476;SDS011;74700;43.228;0.108;2024-02-23T01:48:02;11.45;;;2.80;;
84476;SDS011;74700;43.228;0.108;2024-02-23T01:50:28;7.65;;;2.30;;
84476;SDS011;74700;43.228;0.108;2024-02-23T01:52:57;8.40;;;2.30;;
84476;SDS011;74700;43.228;0.108;2024-02-23T01:55:25;15.88;;;2.47;;
84476;SDS011;74700;43.228;0.108;2024-02-23T01:57:51;12.75;;;2.70;;
84476;SDS011;74700;43.228;0.108;2024-02-23T02:00:18;9.15;;;2.47;;
84476;SDS011;74700;43.228;0.108;2024-02-23T02:02:45;10.73;;;2.97;;
84476;SDS011;74700;43.228;0.108;2024-02-23T02:05:12;8.15;;;2.17;;
84476;SDS011;74700;43.228;0.108;2024-02-23T02:07:39;11.52;;;2.90;;
84476;SDS011;74700;43.228;0.108;2024-02-23T02:10:06;10.77;;;3.03;;
84476;SDS011;74700;43.228;0.108;2024-02-23T02:12:34;10.23;;;2.72;;
84476;SDS011;74700;43.228;0.108;2024-02-23T02:15:00;9.18;;;2.67;;
84476;SDS011;74700;43.228;0.108;2024-02-23T02:17:27;10.15;;;2.63;;
84476;SDS011;74700;43.228;0.108;2024-02-23T02:19:53;12.82;;;2.50;;
84476;SDS011;74700;43.228;0.108;2024-02-23T02:22:19;14.27;;;3.17;;
84476;SDS011;74700;43.228;0.108;2024-02-23T02:24:45;14.88;;;3.20;;
84476;SDS011;74700;43.228;0.108;2024-02-23T02:27:13;8.35;;;3.00;;
84476;SDS011;74700;43.228;0.108;2024-02-23T02:29:39;10.05;;;2.47;;
84476;SDS011;74700;43.228;0.108;2024-02-23T02:32:05;14.38;;;2.92;;
84476;SDS011;74700;43.228;0.108;2024-02-23T02:34:31;9.50;;;2.75;;
84476;SDS011;74700;43.228;0.108;2024-02-23T02:36:57;9.95;;;2.40;;
84476;SDS011;74700;43.228;0.108;2024-02-23T02:39:23;14.70;;;2.80;;
84476;SDS011;74700;43.228;0.108;2024-02-23T02:41:49;10.43;;;2.67;;
84476;SDS011;74700;43.228;0.108;2024-02-23T02:44:15;12.75;;;3.10;;
84476;SDS011;74700;43.228;0.108;2024-02-23T02:46:42;7.25;;;1.95;;
84476;SDS011;74700;43.228;0.108;2024-02-23T02:49:08;6.22;;;1.80;;
84476;SDS011;74700;43.228;0.108;2024-02-23T02:51:34;5.82;;;2.67;;
84476;SDS011;74700;43.228;0.108;2024-02-23T02:54:00;5.32;;;1.95;;
84476;SDS011;74700;43.228;0.108;2024-02-23T02:56:26;5.85;;;2.03;;
84476;SDS011;74700;43.228;0.108;2024-02-23T02:58:52;5.15;;;2.03;;
84476;SDS011;74700;43.228;0.108;2024-02-23T03:01:18;6.25;;;1.85;;
84476;SDS011;74700;43.228;0.108;2024-02-23T03:03:44;6.75;;;2.10;;
84476;SDS011;74700;43.228;0.108;2024-02-23T03:06:10;5.03;;;1.65;;
84476;SDS011;74700;43.228;0.108;2024-02-23T03:08:36;6.72;;;1.67;;
84476;SDS011;74700;43.228;0.108;2024-02-23T03:11:02;8.30;;;2.03;;
84476;SDS011;74700;43.228;0.108;2024-02-23T03:13:28;5.25;;;1.73;;
84476;SDS011;74700;43.228;0.108;2024-02-23T03:15:56;6.45;;;2.00;;
84476;SDS011;74700;43.228;0.108;2024-02-23T03:18:22;2.97;;;1.73;;
84476;SDS011;74700;43.228;0.108;2024-02-23T03:20:48;3.53;;;1.60;;
84476;SDS011;74700;43.228;0.108;2024-02-23T03:23:14;6.47;;;2.08;;
84476;SDS011;74700;43.228;0.108;2024-02-23T03:25:40;1.70;;;1.60;;
84476;SDS011;74700;43.228;0.108;2024-02-23T03:28:06;4.85;;;2.05;;
84476;SDS011;74700;43.228;0.108;2024-02-23T03:30:32;6.07;;;1.88;;
84476;SDS011;74700;43.228;0.108;2024-02-23T03:32:58;6.20;;;2.08;;
84476;SDS011;74700;43.228;0.108;2024-02-23T03:35:24;6.20;;;1.90;;
84476;SDS011;74700;43.228;0.108;2024-02-23T03:37:50;4.28;;;1.92;;
84476;SDS011;74700;43.228;0.108;2024-02-23T03:40:16;10.23;;;2.42;;
84476;SDS011;74700;43.228;0.108;2024-02-23T03:42:44;4.18;;;2.03;;
84476;SDS011;74700;43.228;0.108;2024-02-23T03:45:10;9.55;;;2.55;;
84476;SDS011;74700;43.228;0.108;2024-02-23T03:47:36;11.82;;;1.85;;
84476;SDS011;74700;43.228;0.108;2024-02-23T03:50:02;4.45;;;2.10;;
84476;SDS011;74700;43.228;0.108;2024-02-23T03:52:28;7.70;;;2.40;;
84476;SDS011;74700;43.228;0.108;2024-02-23T03:54:54;4.78;;;2.05;;
84476;SDS011;74700;43.228;0.108;2024-02-23T03:57:20;7.57;;;2.63;;
84476;SDS011;74700;43.228;0.108;2024-02-23T03:59:53;7.75;;;2.45;;
84476;SDS011;74700;43.228;0.108;2024-02-23T04:02:19;7.55;;;2.00;;
84476;SDS011;74700;43.228;0.108;2024-02-23T04:04:45;6.45;;;2.10;;
84476;SDS011;74700;43.228;0.108;2024-02-23T04:07:11;8.82;;;2.22;;
84476;SDS011;74700;43.228;0.108;2024-02-23T04:09:37;6.05;;;2.60;;
84476;SDS011;74700;43.228;0.108;2024-02-23T04:12:03;7.13;;;2.53;;
84476;SDS011;74700;43.228;0.108;2024-02-23T04:14:30;7.80;;;2.55;;
84476;SDS011;74700;43.228;0.108;2024-02-23T04:16:56;7.05;;;2.55;;
84476;SDS011;74700;43.228;0.108;2024-02-23T04:19:22;8.65;;;2.40;;
84476;SDS011;74700;43.228;0.108;2024-02-23T04:21:48;7.85;;;2.38;;
84476;SDS011;74700;43.228;0.108;2024-02-23T04:24:14;11.13;;;2.70;;
84476;SDS011;74700;43.228;0.108;2024-02-23T04:26:40;9.20;;;2.72;;
84476;SDS011;74700;43.228;0.108;2024-02-23T04:29:06;8.40;;;2.38;;
84476;SDS011;74700;43.228;0.108;2024-02-23T04:31:32;12.80;;;2.65;;
84476;SDS011;74700;43.228;0.108;2024-02-23T04:33:58;18.83;;;2.95;;
84476;SDS011;74700;43.228;0.108;2024-02-23T04:36:24;3.40;;;1.90;;
84476;SDS011;74700;43.228;0.108;2024-02-23T04:38:50;8.75;;;2.50;;
84476;SDS011;74700;43.228;0.108;2024-02-23T04:41:19;12.68;;;2.80;;
84476;SDS011;74700;43.228;0.108;2024-02-23T04:43:46;10.52;;;2.05;;
84476;SDS011;74700;43.228;0.108;2024-02-23T04:46:12;8.73;;;2.63;;
84476;SDS011;74700;43.228;0.108;2024-02-23T04:48:38;14.10;;;2.90;;
84476;SDS011;74700;43.228;0.108;2024-02-23T04:51:04;11.27;;;2.38;;
84476;SDS011;74700;43.228;0.108;2024-02-23T04:53:35;8.10;;;2.75;;
84476;SDS011;74700;43.228;0.108;2024-02-23T04:56:02;8.55;;;2.58;;
84476;SDS011;74700;43.228;0.108;2024-02-23T04:58:28;8.50;;;2.22;;
84476;SDS011;74700;43.228;0.108;2024-02-23T05:00:54;8.20;;;2.47;;
84476;SDS011;74700;43.228;0.108;2024-02-23T05:03:20;6.88;;;2.20;;
84476;SDS011;74700;43.228;0.108;2024-02-23T05:05:46;16.58;;;2.80;;
84476;SDS011;74700;43.228;0.108;2024-02-23T05:08:14;14.35;;;3.00;;
84476;SDS011;74700;43.228;0.108;2024-02-23T05:10:40;12.18;;;3.25;;
84476;SDS011;74700;43.228;0.108;2024-02-23T05:13:06;15.30;;;3.28;;
84476;SDS011;74700;43.228;0.108;2024-02-23T05:15:32;10.63;;;2.45;;
84476;SDS011;74700;43.228;0.108;2024-02-23T05:17:58;13.00;;;3.08;;
84476;SDS011;74700;43.228;0.108;2024-02-23T05:20:24;7.43;;;2.47;;
84476;SDS011;74700;43.228;0.108;2024-02-23T05:22:50;11.70;;;2.97;;
84476;SDS011;74700;43.228;0.108;2024-02-23T05:25:16;15.63;;;3.08;;
84476;SDS011;74700;43.228;0.108;2024-02-23T05:27:42;15.73;;;3.00;;
84476;SDS011;74700;43.228;0.108;2024-02-23T05:30:09;15.57;;;2.85;;
84476;SDS011;74700;43.228;0.108;2024-02-23T05:32:35;11.82;;;3.15;;
84476;SDS011;74700;43.228;0.108;2024-02-23T05:35:01;11.07;;;3.70;;
84476;SDS011;74700;43.228;0.108;2024-02-23T05:37:28;15.25;;;3.70;;
84476;SDS011;74700;43.228;0.108;2024-02-23T05:39:54;13.93;;;2.97;;
84476;SDS011;74700;43.228;0.108;2024-02-23T05:42:20;13.98;;;2.88;;
84476;SDS011;74700;43.228;0.108;2024-02-23T05:44:46;14.07;;;2.63;;
84476;SDS011;74700;43.228;0.108;2024-02-23T05:47:15;14.52;;;3.35;;
84476;SDS011;74700;43.228;0.108;2024-02-23T05:49:41;15.98;;;3.25;;
84476;SDS011;74700;43.228;0.108;2024-02-23T05:52:07;10.82;;;3.63;;
84476;SDS011;74700;43.228;0.108;2024-02-23T05:54:34;14.10;;;3.20;;
84476;SDS011;74700;43.228;0.108;2024-02-23T05:57:00;14.00;;;3.17;;
84476;SDS011;74700;43.228;0.108;2024-02-23T05:59:27;17.10;;;2.72;;
84476;SDS011;74700;43.228;0.108;2024-02-23T06:01:54;11.35;;;3.17;;
84476;SDS011;74700;43.228;0.108;2024-02-23T06:04:22;13.85;;;3.75;;
84476;SDS011;74700;43.228;0.108;2024-02-23T06:06:48;7.03;;;2.88;;
84476;SDS011;74700;43.228;0.108;2024-02-23T06:09:14;10.82;;;3.08;;
84476;SDS011;74700;43.228;0.108;2024-02-23T06:11:41;10.77;;;4.13;;
84476;SDS011;74700;43.228;0.108;2024-02-23T06:14:07;16.35;;;2.97;;
84476;SDS011;74700;43.228;0.108;2024-02-23T06:16:33;12.48;;;2.88;;
84476;SDS011;74700;43.228;0.108;2024-02-23T06:18:59;9.05;;;2.90;;
84476;SDS011;74700;43.228;0.108;2024-02-23T06:21:25;8.98;;;2.95;;
84476;SDS011;74700;43.228;0.108;2024-02-23T06:23:52;8.20;;;2.72;;
84476;SDS011;74700;43.228;0.108;2024-02-23T06:26:19;17.52;;;3.95;;
84476;SDS011;74700;43.228;0.108;2024-02-23T06:28:45;8.98;;;2.97;;
84476;SDS011;74700;43.228;0.108;2024-02-23T06:31:11;19.90;;;3.70;;
84476;SDS011;74700;43.228;0.108;2024-02-23T06:33:37;11.73;;;3.60;;
84476;SDS011;74700;43.228;0.108;2024-02-23T06:36:03;10.52;;;2.92;;
84476;SDS011;74700;43.228;0.108;2024-02-23T06:38:29;14.43;;;3.30;;
84476;SDS011;74700;43.228;0.108;2024-02-23T06:40:56;12.80;;;3.50;;
84476;SDS011;74700;43.228;0.108;2024-02-23T06:43:22;20.48;;;3.20;;
84476;SDS011;74700;43.228;0.108;2024-02-23T06:45:49;16.63;;;3.30;;
84476;SDS011;74700;43.228;0.108;2024-02-23T06:48:15;14.23;;;4.13;;
84476;SDS011;74700;43.228;0.108;2024-02-23T06:50:41;26.08;;;4.13;;
84476;SDS011;74700;43.228;0.108;2024-02-23T06:53:07;17.63;;;3.20;;
84476;SDS011;74700;43.228;0.108;2024-02-23T06:55:34;18.67;;;3.20;;
84476;SDS011;74700;43.228;0.108;2024-02-23T06:58:00;14.13;;;3.05;;
84476;SDS011;74700;43.228;0.108;2024-02-23T07:00:27;14.07;;;3.45;;
84476;SDS011;74700;43.228;0.108;2024-02-23T07:02:53;13.77;;;3.38;;
84476;SDS011;74700;43.228;0.108;2024-02-23T07:05:19;18.42;;;3.75;;
84476;SDS011;74700;43.228;0.108;2024-02-23T07:07:45;16.98;;;3.53;;
84476;SDS011;74700;43.228;0.108;2024-02-23T07:10:11;11.20;;;3.20;;
84476;SDS011;74700;43.228;0.108;2024-02-23T07:12:37;15.05;;;3.78;;
84476;SDS011;74700;43.228;0.108;2024-02-23T07:15:03;17.08;;;3.47;;
84476;SDS011;74700;43.228;0.108;2024-02-23T07:17:29;17.27;;;3.58;;
84476;SDS011;74700;43.228;0.108;2024-02-23T07:19:55;21.88;;;3.33;;
84476;SDS011;74700;43.228;0.108;2024-02-23T07:22:30;24.05;;;3.20;;
84476;SDS011;74700;43.228;0.108;2024-02-23T07:24:56;12.90;;;3.33;;
84476;SDS011;74700;43.228;0.108;2024-02-23T07:27:22;16.30;;;3.20;;
84476;SDS011;74700;43.228;0.108;2024-02-23T07:29:48;17.70;;;3.17;;
84476;SDS011;74700;43.228;0.108;2024-02-23T07:32:14;11.90;;;2.90;;
84476;SDS011;74700;43.228;0.108;2024-02-23T07:34:40;15.85;;;3.40;;
84476;SDS011;74700;43.228;0.108;2024-02-23T07:37:06;16.00;;;4.32;;
84476;SDS011;74700;43.228;0.108;2024-02-23T07:39:32;15.18;;;4.38;;
84476;SDS011;74700;43.228;0.108;2024-02-23T07:41:58;9.40;;;3.05;;
84476;SDS011;74700;43.228;0.108;2024-02-23T07:44:25;12.55;;;3.20;;
84476;SDS011;74700;43.228;0.108;2024-02-23T07:46:51;16.55;;;3.63;;
84476;SDS011;74700;43.228;0.108;2024-02-23T07:49:19;11.05;;;3.28;;
84476;SDS011;74700;43.228;0.108;2024-02-23T07:51:45;9.50;;;3.13;;
84476;SDS011;74700;43.228;0.108;2024-02-23T07:54:11;12.52;;;3.72;;
84476;SDS011;74700;43.228;0.108;2024-02-23T07:56:37;10.48;;;3.15;;
84476;SDS011;74700;43.228;0.108;2024-02-23T07:59:03;7.05;;;2.78;;
84476;SDS011;74700;43.228;0.108;2024-02-23T08:01:29;9.13;;;2.65;;
84476;SDS011;74700;43.228;0.108;2024-02-23T08:03:55;5.25;;;2.28;;
84476;SDS011;74700;43.228;0.108;2024-02-23T08:06:21;4.35;;;2.33;;
84476;SDS011;74700;43.228;0.108;2024-02-23T08:08:47;11.18;;;2.13;;
84476;SDS011;74700;43.228;0.108;2024-02-23T08:11:13;12.80;;;2.40;;
84476;SDS011;74700;43.228;0.108;2024-02-23T08:13:39;12.77;;;2.17;;
84476;SDS011;74700;43.228;0.108;2024-02-23T08:16:06;4.63;;;2.10;;
84476;SDS011;74700;43.228;0.108;2024-02-23T08:18:32;5.60;;;2.25;;
84476;SDS011;74700;43.228;0.108;2024-02-23T08:20:58;8.77;;;2.10;;
84476;SDS011;74700;43.228;0.108;2024-02-23T08:23:27;7.38;;;2.40;;
84476;SDS011;74700;43.228;0.108;2024-02-23T08:25:53;4.32;;;2.05;;
84476;SDS011;74700;43.228;0.108;2024-02-23T08:28:21;4.18;;;2.15;;
84476;SDS011;74700;43.228;0.108;2024-02-23T08:30:47;9.55;;;2.40;;
84476;SDS011;74700;43.228;0.108;2024-02-23T08:33:13;7.55;;;2.08;;
84476;SDS011;74700;43.228;0.108;2024-02-23T08:35:39;11.40;;;2.58;;
84476;SDS011;74700;43.228;0.108;2024-02-23T08:38:05;7.90;;;2.42;;
84476;SDS011;74700;43.228;0.108;2024-02-23T08:40:32;7.05;;;2.65;;
84476;SDS011;74700;43.228;0.108;2024-02-23T08:42:58;6.72;;;2.10;;
84476;SDS011;74700;43.228;0.108;2024-02-23T08:45:24;13.75;;;2.65;;
84476;SDS011;74700;43.228;0.108;2024-02-23T08:47:50;14.20;;;2.80;;
84476;SDS011;74700;43.228;0.108;2024-02-23T08:50:16;9.98;;;2.20;;
84476;SDS011;74700;43.228;0.108;2024-02-23T08:52:42;7.90;;;2.95;;
84476;SDS011;74700;43.228;0.108;2024-02-23T08:55:08;10.10;;;2.90;;
84476;SDS011;74700;43.228;0.108;2024-02-23T08:57:34;9.00;;;2.35;;
84476;SDS011;74700;43.228;0.108;2024-02-23T09:00:00;7.25;;;2.40;;
84476;SDS011;74700;43.228;0.108;2024-02-23T09:02:26;4.40;;;2.10;;
84476;SDS011;74700;43.228;0.108;2024-02-23T09:04:52;7.40;;;2.10;;
84476;SDS011;74700;43.228;0.108;2024-02-23T09:07:18;9.55;;;2.30;;
84476;SDS011;74700;43.228;0.108;2024-02-23T09:09:46;9.40;;;2.15;;
84476;SDS011;74700;43.228;0.108;2024-02-23T09:12:13;9.60;;;2.33;;
84476;SDS011;74700;43.228;0.108;2024-02-23T09:14:41;6.05;;;2.45;;
84476;SDS011;74700;43.228;0.108;2024-02-23T09:17:08;3.25;;;1.75;;
84476;SDS011;74700;43.228;0.108;2024-02-23T09:19:34;6.53;;;2.03;;
84476;SDS011;74700;43.228;0.108;2024-02-23T09:22:01;6.97;;;2.63;;
84476;SDS011;74700;43.228;0.108;2024-02-23T09:24:28;2.35;;;1.73;;
84476;SDS011;74700;43.228;0.108;2024-02-23T09:26:54;24.80;;;2.92;;
84476;SDS011;74700;43.228;0.108;2024-02-23T09:29:20;7.57;;;2.63;;
84476;SDS011;74700;43.228;0.108;2024-02-23T09:31:46;4.00;;;1.83;;
84476;SDS011;74700;43.228;0.108;2024-02-23T09:34:13;4.47;;;1.80;;
84476;SDS011;74700;43.228;0.108;2024-02-23T09:36:39;9.25;;;1.83;;
84476;SDS011;74700;43.228;0.108;2024-02-23T09:39:05;8.13;;;1.98;;
84476;SDS011;74700;43.228;0.108;2024-02-23T09:41:31;3.47;;;1.88;;
84476;SDS011;74700;43.228;0.108;2024-02-23T09:44:00;4.72;;;1.83;;
84476;SDS011;74700;43.228;0.108;2024-02-23T09:46:27;7.03;;;1.98;;
84476;SDS011;74700;43.228;0.108;2024-02-23T09:48:53;4.47;;;1.80;;
84476;SDS011;74700;43.228;0.108;2024-02-23T09:51:20;14.20;;;2.30;;
84476;SDS011;74700;43.228;0.108;2024-02-23T09:53:46;15.73;;;2.97;;
84476;SDS011;74700;43.228;0.108;2024-02-23T09:56:15;12.02;;;2.63;;
84476;SDS011;74700;43.228;0.108;2024-02-23T09:58:42;2.53;;;1.55;;
84476;SDS011;74700;43.228;0.108;2024-02-23T10:01:09;3.83;;;1.70;;
84476;SDS011;74700;43.228;0.108;2024-02-23T10:03:36;12.65;;;1.70;;
84476;SDS011;74700;43.228;0.108;2024-02-23T10:06:03;3.83;;;1.50;;
84476;SDS011;74700;43.228;0.108;2024-02-23T10:08:30;3.35;;;1.60;;
84476;SDS011;74700;43.228;0.108;2024-02-23T10:10:56;4.90;;;1.90;;
84476;SDS011;74700;43.228;0.108;2024-02-23T10:13:22;2.53;;;1.27;;
84476;SDS011;74700;43.228;0.108;2024-02-23T10:15:49;6.78;;;1.60;;
84476;SDS011;74700;43.228;0.108;2024-02-23T10:18:16;2.22;;;1.60;;
84476;SDS011;74700;43.228;0.108;2024-02-23T10:20:42;2.00;;;1.55;;
84476;SDS011;74700;43.228;0.108;2024-02-23T10:23:08;2.78;;;1.67;;
84476;SDS011;74700;43.228;0.108;2024-02-23T10:25:34;2.90;;;1.67;;
84476;SDS011;74700;43.228;0.108;2024-02-23T10:28:01;3.63;;;2.10;;
84476;SDS011;74700;43.228;0.108;2024-02-23T10:30:27;4.32;;;1.50;;
84476;SDS011;74700;43.228;0.108;2024-02-23T10:32:56;4.78;;;1.60;;
84476;SDS011;74700;43.228;0.108;2024-02-23T10:35:23;1.80;;;1.25;;
84476;SDS011;74700;43.228;0.108;2024-02-23T10:37:49;3.08;;;1.65;;
84476;SDS011;74700;43.228;0.108;2024-02-23T10:40:17;3.42;;;1.77;;
84476;SDS011;74700;43.228;0.108;2024-02-23T10:42:44;8.27;;;1.80;;
84476;SDS011;74700;43.228;0.108;2024-02-23T10:45:16;3.78;;;1.60;;
84476;SDS011;74700;43.228;0.108;2024-02-23T10:47:42;8.10;;;2.03;;
84476;SDS011;74700;43.228;0.108;2024-02-23T10:50:09;1.45;;;1.35;;
84476;SDS011;74700;43.228;0.108;2024-02-23T10:52:39;4.57;;;1.58;;
84476;SDS011;74700;43.228;0.108;2024-02-23T10:55:06;4.90;;;1.60;;
84476;SDS011;74700;43.228;0.108;2024-02-23T10:57:34;3.55;;;1.70;;
84476;SDS011;74700;43.228;0.108;2024-02-23T11:00:00;3.40;;;1.77;;
84476;SDS011;74700;43.228;0.108;2024-02-23T11:02:28;4.47;;;1.92;;
84476;SDS011;74700;43.228;0.108;2024-02-23T11:04:56;3.15;;;1.40;;
84476;SDS011;74700;43.228;0.108;2024-02-23T11:07:23;2.53;;;1.52;;
84476;SDS011;74700;43.228;0.108;2024-02-23T11:09:54;5.00;;;2.28;;
84476;SDS011;74700;43.228;0.108;2024-02-23T11:12:29;3.35;;;1.40;;
84476;SDS011;74700;43.228;0.108;2024-02-23T11:14:59;9.70;;;1.98;;
84476;SDS011;74700;43.228;0.108;2024-02-23T11:17:31;5.25;;;2.17;;
84476;SDS011;74700;43.228;0.108;2024-02-23T11:19:58;6.10;;;2.22;;
84476;SDS011;74700;43.228;0.108;2024-02-23T11:22:24;3.67;;;1.80;;
84476;SDS011;74700;43.228;0.108;2024-02-23T11:24:51;4.80;;;2.05;;
84476;SDS011;74700;43.228;0.108;2024-02-23T11:27:17;4.55;;;1.85;;
84476;SDS011;74700;43.228;0.108;2024-02-23T11:29:46;5.35;;;2.13;;
84476;SDS011;74700;43.228;0.108;2024-02-23T11:32:16;5.38;;;2.58;;
84476;SDS011;74700;43.228;0.108;2024-02-23T11:34:53;6.47;;;2.38;;
84476;SDS011;74700;43.228;0.108;2024-02-23T11:37:20;5.63;;;2.25;;
84476;SDS011;74700;43.228;0.108;2024-02-23T11:39:46;3.42;;;1.95;;
84476;SDS011;74700;43.228;0.108;2024-02-23T11:42:13;5.47;;;2.30;;
84476;SDS011;74700;43.228;0.108;2024-02-23T11:44:39;2.25;;;1.67;;
84476;SDS011;74700;43.228;0.108;2024-02-23T11:47:06;2.10;;;1.63;;
84476;SDS011;74700;43.228;0.108;2024-02-23T11:49:32;5.75;;;2.65;;
84476;SDS011;74700;43.228;0.108;2024-02-23T11:51:58;3.17;;;1.95;;
84476;SDS011;74700;43.228;0.108;2024-02-23T11:54:25;4.97;;;1.92;;
84476;SDS011;74700;43.228;0.108;2024-02-23T11:56:51;4.28;;;2.70;;
84476;SDS011;74700;43.228;0.108;2024-02-23T11:59:18;5.10;;;1.70;;
84476;SDS011;74700;43.228;0.108;2024-02-23T12:01:45;4.88;;;2.17;;
84476;SDS011;74700;43.228;0.108;2024-02-23T12:04:12;3.33;;;1.73;;
84476;SDS011;74700;43.228;0.108;2024-02-23T12:06:38;4.28;;;1.73;;
84476;SDS011;74700;43.228;0.108;2024-02-23T12:09:04;4.47;;;1.70;;
84476;SDS011;74700;43.228;0.108;2024-02-23T12:11:30;5.18;;;2.08;;
84476;SDS011;74700;43.228;0.108;2024-02-23T12:13:56;3.90;;;1.80;;
84476;SDS011;74700;43.228;0.108;2024-02-23T12:16:22;3.17;;;1.73;;
84476;SDS011;74700;43.228;0.108;2024-02-23T12:18:57;6.38;;;2.00;;
84476;SDS011;74700;43.228;0.108;2024-02-23T12:21:23;7.00;;;1.92;;
84476;SDS011;74700;43.228;0.108;2024-02-23T12:23:50;2.97;;;1.73;;
84476;SDS011;74700;43.228;0.108;2024-02-23T12:26:17;3.72;;;1.88;;
84476;SDS011;74700;43.228;0.108;2024-02-23T12:28:43;8.30;;;1.67;;
84476;SDS011;74700;43.228;0.108;2024-02-23T12:31:10;3.60;;;1.80;;
84476;SDS011;74700;43.228;0.108;2024-02-23T12:33:37;2.47;;;1.90;;
84476;SDS011;74700;43.228;0.108;2024-02-23T12:36:07;5.15;;;2.08;;
84476;SDS011;74700;43.228;0.108;2024-02-23T12:38:33;4.28;;;1.80;;
84476;SDS011;74700;43.228;0.108;2024-02-23T12:41:00;4.57;;;1.50;;
84476;SDS011;74700;43.228;0.108;2024-02-23T12:43:27;3.28;;;1.50;;
84476;SDS011;74700;43.228;0.108;2024-02-23T12:45:53;2.55;;;1.85;;
84476;SDS011;74700;43.228;0.108;2024-02-23T12:48:20;3.17;;;1.90;;
84476;SDS011;74700;43.228;0.108;2024-02-23T12:50:46;2.55;;;1.88;;
84476;SDS011;74700;43.228;0.108;2024-02-23T12:53:55;3.65;;;1.55;;
84476;SDS011;74700;43.228;0.108;2024-02-23T12:56:03;4.13;;;1.85;;
84476;SDS011;74700;43.228;0.108;2024-02-23T12:58:29;3.92;;;1.70;;
84476;SDS011;74700;43.228;0.108;2024-02-23T13:00:56;5.47;;;1.63;;
84476;SDS011;74700;43.228;0.108;2024-02-23T13:03:23;2.30;;;1.40;;
84476;SDS011;74700;43.228;0.108;2024-02-23T13:05:49;5.13;;;1.35;;
84476;SDS011;74700;43.228;0.108;2024-02-23T13:08:15;1.40;;;1.30;;
84476;SDS011;74700;43.228;0.108;2024-02-23T13:10:42;3.35;;;1.65;;
84476;SDS011;74700;43.228;0.108;2024-02-23T13:13:09;1.80;;;1.67;;
84476;SDS011;74700;43.228;0.108;2024-02-23T13:15:35;5.30;;;1.77;;
84476;SDS011;74700;43.228;0.108;2024-02-23T13:18:03;2.55;;;1.40;;
84476;SDS011;74700;43.228;0.108;2024-02-23T13:20:29;4.95;;;1.48;;
84476;SDS011;74700;43.228;0.108;2024-02-23T13:22:55;1.60;;;1.50;;
84476;SDS011;74700;43.228;0.108;2024-02-23T13:25:21;5.47;;;2.13;;
84476;SDS011;74700;43.228;0.108;2024-02-23T13:27:47;4.50;;;1.52;;
84476;SDS011;74700;43.228;0.108;2024-02-23T13:30:13;1.92;;;1.80;;
84476;SDS011;74700;43.228;0.108;2024-02-23T13:32:39;3.55;;;1.40;;
84476;SDS011;74700;43.228;0.108;2024-02-23T13:35:05;4.05;;;1.65;;
84476;SDS011;74700;43.228;0.108;2024-02-23T13:37:32;4.07;;;1.50;;
84476;SDS011;74700;43.228;0.108;2024-02-23T13:39:58;1.10;;;1.10;;
84476;SDS011;74700;43.228;0.108;2024-02-23T13:42:24;2.55;;;1.60;;
84476;SDS011;74700;43.228;0.108;2024-02-23T13:44:50;1.63;;;1.30;;
84476;SDS011;74700;43.228;0.108;2024-02-23T13:47:16;2.33;;;1.50;;
84476;SDS011;74700;43.228;0.108;2024-02-23T13:49:42;4.57;;;1.83;;
84476;SDS011;74700;43.228;0.108;2024-02-23T13:52:08;3.83;;;1.80;;
84476;SDS011;74700;43.228;0.108;2024-02-23T13:54:34;7.85;;;2.33;;
84476;SDS011;74700;43.228;0.108;2024-02-23T13:57:00;4.10;;;1.88;;
84476;SDS011;74700;43.228;0.108;2024-02-23T13:59:26;7.78;;;2.00;;
84476;SDS011;74700;43.228;0.108;2024-02-23T14:01:52;3.10;;;1.95;;
84476;SDS011;74700;43.228;0.108;2024-02-23T14:04:18;5.72;;;1.65;;
84476;SDS011;74700;43.228;0.108;2024-02-23T14:06:44;3.97;;;1.73;;
84476;SDS011;74700;43.228;0.108;2024-02-23T14:09:10;2.28;;;1.40;;
84476;SDS011;74700;43.228;0.108;2024-02-23T14:11:36;5.80;;;2.13;;
84476;SDS011;74700;43.228;0.108;2024-02-23T14:14:04;3.47;;;1.63;;
84476;SDS011;74700;43.228;0.108;2024-02-23T14:16:31;5.25;;;1.83;;
84476;SDS011;74700;43.228;0.108;2024-02-23T14:18:57;2.65;;;1.80;;
84476;SDS011;74700;43.228;0.108;2024-02-23T14:21:23;2.10;;;1.85;;
84476;SDS011;74700;43.228;0.108;2024-02-23T14:23:50;6.38;;;1.92;;
84476;SDS011;74700;43.228;0.108;2024-02-23T14:26:16;3.88;;;2.42;;
84476;SDS011;74700;43.228;0.108;2024-02-23T14:28:42;5.63;;;2.05;;
84476;SDS011;74700;43.228;0.108;2024-02-23T14:31:08;6.05;;;2.05;;
84476;SDS011;74700;43.228;0.108;2024-02-23T14:33:34;6.07;;;2.17;;
84476;SDS011;74700;43.228;0.108;2024-02-23T14:36:00;6.30;;;2.10;;
84476;SDS011;74700;43.228;0.108;2024-02-23T14:38:28;2.70;;;2.45;;